sensor_id;sensor_type;location;lat;lon;timestamp;P1;durP1;ratioP1;P2;durP2;ratioP2
47431;SDS011;33183;52.290;6.144;2023-01-08T00:01:49;3.35;;;2.10;;
47431;SDS011;33183;52.290;6.144;2023-01-08T00:04:15;2.60;;;1.98;;
47431;SDS011;33183;52.290;6.144;2023-01-08T00:06:42;3.65;;;2.30;;
47431;SDS011;33183;52.290;6.144;2023-01-08T00:09:08;3.33;;;2.40;;
47431;SDS011;33183;52.290;6.144;2023-01-08T00:11:36;2.42;;;1.75;;
47431;SDS011;33183;52.290;6.144;2023-01-08T00:14:01;2.72;;;2.00;;
47431;SDS011;33183;52.290;6.144;2023-01-08T00:16:27;4.32;;;2.30;;
47431;SDS011;33183;52.290;6.144;2023-01-08T00:18:53;3.53;;;2.45;;
47431;SDS011;33183;52.290;6.144;2023-01-08T00:21:19;2.70;;;1.90;;
47431;SDS011;33183;52.290;6.144;2023-01-08T00:23:44;2.75;;;1.90;;
47431;SDS011;33183;52.290;6.144;2023-01-08T00:26:10;2.50;;;1.60;;
47431;SDS011;33183;52.290;6.144;2023-01-08T00:28:36;3.00;;;2.08;;
47431;SDS011;33183;52.290;6.144;2023-01-08T00:31:02;2.80;;;1.88;;
47431;SDS011;33183;52.290;6.144;2023-01-08T00:33:28;1.98;;;1.50;;
47431;SDS011;33183;52.290;6.144;2023-01-08T00:35:54;2.78;;;1.95;;
47431;SDS011;33183;52.290;6.144;2023-01-08T00:38:19;2.40;;;1.70;;
47431;SDS011;33183;52.290;6.144;2023-01-08T00:40:46;2.42;;;1.70;;
47431;SDS011;33183;52.290;6.144;2023-01-08T00:43:12;3.53;;;1.73;;
47431;SDS011;33183;52.290;6.144;2023-01-08T00:45:37;3.03;;;1.88;;
47431;SDS011;33183;52.290;6.144;2023-01-08T00:48:02;2.00;;;1.60;;
47431;SDS011;33183;52.290;6.144;2023-01-08T00:50:27;3.30;;;1.63;;
47431;SDS011;33183;52.290;6.144;2023-01-08T00:52:53;2.95;;;2.00;;
47431;SDS011;33183;52.290;6.144;2023-01-08T00:55:18;2.25;;;1.80;;
47431;SDS011;33183;52.290;6.144;2023-01-08T00:57:43;2.00;;;1.65;;
47431;SDS011;33183;52.290;6.144;2023-01-08T01:00:11;2.10;;;1.58;;
47431;SDS011;33183;52.290;6.144;2023-01-08T01:05:03;2.38;;;1.58;;
47431;SDS011;33183;52.290;6.144;2023-01-08T01:07:29;3.72;;;2.47;;
47431;SDS011;33183;52.290;6.144;2023-01-08T01:09:55;2.83;;;1.90;;
47431;SDS011;33183;52.290;6.144;2023-01-08T01:12:20;3.13;;;2.00;;
47431;SDS011;33183;52.290;6.144;2023-01-08T01:14:46;3.45;;;1.70;;
47431;SDS011;33183;52.290;6.144;2023-01-08T01:17:11;2.85;;;1.80;;
47431;SDS011;33183;52.290;6.144;2023-01-08T01:19:37;2.28;;;2.00;;
47431;SDS011;33183;52.290;6.144;2023-01-08T01:22:02;3.08;;;2.17;;
47431;SDS011;33183;52.290;6.144;2023-01-08T01:24:28;2.53;;;1.60;;
47431;SDS011;33183;52.290;6.144;2023-01-08T01:26:53;2.55;;;1.80;;
47431;SDS011;33183;52.290;6.144;2023-01-08T01:29:20;3.63;;;1.95;;
47431;SDS011;33183;52.290;6.144;2023-01-08T01:31:46;1.88;;;1.70;;
47431;SDS011;33183;52.290;6.144;2023-01-08T01:34:11;2.85;;;1.90;;
47431;SDS011;33183;52.290;6.144;2023-01-08T01:36:36;2.17;;;1.90;;
47431;SDS011;33183;52.290;6.144;2023-01-08T01:39:02;2.50;;;1.55;;
47431;SDS011;33183;52.290;6.144;2023-01-08T01:41:29;3.33;;;1.90;;
47431;SDS011;33183;52.290;6.144;2023-01-08T01:43:57;1.92;;;1.38;;
47431;SDS011;33183;52.290;6.144;2023-01-08T01:46:37;2.88;;;1.95;;
47431;SDS011;33183;52.290;6.144;2023-01-08T01:49:07;2.30;;;1.70;;
47431;SDS011;33183;52.290;6.144;2023-01-08T01:51:35;3.20;;;2.10;;
47431;SDS011;33183;52.290;6.144;2023-01-08T01:54:01;1.98;;;1.45;;
47431;SDS011;33183;52.290;6.144;2023-01-08T01:56:28;3.00;;;1.73;;
47431;SDS011;33183;52.290;6.144;2023-01-08T01:58:53;2.80;;;2.13;;
47431;SDS011;33183;52.290;6.144;2023-01-08T02:01:18;2.45;;;1.67;;
47431;SDS011;33183;52.290;6.144;2023-01-08T02:03:44;2.22;;;1.70;;
47431;SDS011;33183;52.290;6.144;2023-01-08T02:11:42;2.10;;;1.50;;
47431;SDS011;33183;52.290;6.144;2023-01-08T02:14:18;3.17;;;1.63;;
47431;SDS011;33183;52.290;6.144;2023-01-08T02:17:11;3.35;;;1.50;;
47431;SDS011;33183;52.290;6.144;2023-01-08T02:19:44;1.67;;;1.45;;
47431;SDS011;33183;52.290;6.144;2023-01-08T02:22:34;3.13;;;1.90;;
47431;SDS011;33183;52.290;6.144;2023-01-08T02:27:55;1.75;;;1.30;;
47431;SDS011;33183;52.290;6.144;2023-01-08T02:30:21;2.63;;;1.88;;
47431;SDS011;33183;52.290;6.144;2023-01-08T02:32:46;3.20;;;1.73;;
47431;SDS011;33183;52.290;6.144;2023-01-08T02:35:12;2.30;;;1.52;;
47431;SDS011;33183;52.290;6.144;2023-01-08T02:37:37;3.22;;;1.77;;
47431;SDS011;33183;52.290;6.144;2023-01-08T02:48:11;2.58;;;1.50;;
47431;SDS011;33183;52.290;6.144;2023-01-08T02:51:40;3.05;;;1.83;;
47431;SDS011;33183;52.290;6.144;2023-01-08T02:53:49;1.73;;;1.48;;
47431;SDS011;33183;52.290;6.144;2023-01-08T02:56:37;2.30;;;1.50;;
47431;SDS011;33183;52.290;6.144;2023-01-08T02:59:02;1.98;;;1.60;;
47431;SDS011;33183;52.290;6.144;2023-01-08T03:01:29;2.30;;;1.52;;
47431;SDS011;33183;52.290;6.144;2023-01-08T03:03:57;2.72;;;1.50;;
47431;SDS011;33183;52.290;6.144;2023-01-08T03:06:24;2.00;;;1.60;;
47431;SDS011;33183;52.290;6.144;2023-01-08T03:08:51;2.00;;;1.60;;
47431;SDS011;33183;52.290;6.144;2023-01-08T03:11:17;2.30;;;1.67;;
47431;SDS011;33183;52.290;6.144;2023-01-08T03:14:19;2.38;;;1.40;;
47431;SDS011;33183;52.290;6.144;2023-01-08T03:17:30;2.00;;;1.70;;
47431;SDS011;33183;52.290;6.144;2023-01-08T03:19:59;3.35;;;1.60;;
47431;SDS011;33183;52.290;6.144;2023-01-08T03:22:27;1.55;;;1.45;;
47431;SDS011;33183;52.290;6.144;2023-01-08T03:24:54;2.35;;;1.60;;
47431;SDS011;33183;52.290;6.144;2023-01-08T03:27:24;1.90;;;1.40;;
47431;SDS011;33183;52.290;6.144;2023-01-08T03:29:53;2.25;;;1.77;;
47431;SDS011;33183;52.290;6.144;2023-01-08T03:32:20;1.95;;;1.35;;
47431;SDS011;33183;52.290;6.144;2023-01-08T03:34:46;2.15;;;1.65;;
47431;SDS011;33183;52.290;6.144;2023-01-08T03:37:13;2.15;;;1.42;;
47431;SDS011;33183;52.290;6.144;2023-01-08T03:39:42;3.30;;;1.60;;
47431;SDS011;33183;52.290;6.144;2023-01-08T03:42:12;2.22;;;1.38;;
47431;SDS011;33183;52.290;6.144;2023-01-08T03:44:39;2.15;;;1.60;;
47431;SDS011;33183;52.290;6.144;2023-01-08T03:47:04;1.45;;;1.20;;
47431;SDS011;33183;52.290;6.144;2023-01-08T03:49:33;1.67;;;1.40;;
47431;SDS011;33183;52.290;6.144;2023-01-08T03:51:59;1.98;;;1.40;;
47431;SDS011;33183;52.290;6.144;2023-01-08T03:54:25;2.13;;;1.92;;
47431;SDS011;33183;52.290;6.144;2023-01-08T03:56:54;4.03;;;1.33;;
47431;SDS011;33183;52.290;6.144;2023-01-08T03:59:20;1.55;;;1.30;;
47431;SDS011;33183;52.290;6.144;2023-01-08T04:01:45;1.65;;;1.30;;
47431;SDS011;33183;52.290;6.144;2023-01-08T04:04:11;1.80;;;1.20;;
47431;SDS011;33183;52.290;6.144;2023-01-08T04:06:36;2.05;;;1.52;;
47431;SDS011;33183;52.290;6.144;2023-01-08T04:09:01;2.35;;;1.50;;
47431;SDS011;33183;52.290;6.144;2023-01-08T04:11:27;2.20;;;1.30;;
47431;SDS011;33183;52.290;6.144;2023-01-08T04:13:52;2.22;;;1.35;;
47431;SDS011;33183;52.290;6.144;2023-01-08T04:16:18;1.75;;;1.30;;
47431;SDS011;33183;52.290;6.144;2023-01-08T04:18:43;2.50;;;1.30;;
47431;SDS011;33183;52.290;6.144;2023-01-08T04:21:08;1.77;;;1.30;;
47431;SDS011;33183;52.290;6.144;2023-01-08T04:23:33;2.35;;;1.20;;
47431;SDS011;33183;52.290;6.144;2023-01-08T04:25:59;2.50;;;1.10;;
47431;SDS011;33183;52.290;6.144;2023-01-08T04:28:24;1.40;;;1.20;;
47431;SDS011;33183;52.290;6.144;2023-01-08T04:30:49;1.90;;;1.40;;
47431;SDS011;33183;52.290;6.144;2023-01-08T04:33:15;1.60;;;1.20;;
47431;SDS011;33183;52.290;6.144;2023-01-08T04:35:40;2.05;;;1.17;;
47431;SDS011;33183;52.290;6.144;2023-01-08T04:38:06;1.48;;;1.38;;
47431;SDS011;33183;52.290;6.144;2023-01-08T04:40:31;1.85;;;1.45;;
47431;SDS011;33183;52.290;6.144;2023-01-08T04:42:57;2.03;;;1.60;;
47431;SDS011;33183;52.290;6.144;2023-01-08T04:45:22;3.47;;;1.50;;
47431;SDS011;33183;52.290;6.144;2023-01-08T04:47:53;1.73;;;1.20;;
47431;SDS011;33183;52.290;6.144;2023-01-08T04:50:19;1.85;;;1.25;;
47431;SDS011;33183;52.290;6.144;2023-01-08T04:52:44;1.70;;;1.27;;
47431;SDS011;33183;52.290;6.144;2023-01-08T04:55:10;1.50;;;1.20;;
47431;SDS011;33183;52.290;6.144;2023-01-08T04:57:35;1.40;;;1.30;;
47431;SDS011;33183;52.290;6.144;2023-01-08T05:00:00;1.63;;;1.30;;
47431;SDS011;33183;52.290;6.144;2023-01-08T05:02:25;3.08;;;1.40;;
47431;SDS011;33183;52.290;6.144;2023-01-08T05:04:51;2.08;;;1.50;;
47431;SDS011;33183;52.290;6.144;2023-01-08T05:07:16;1.55;;;1.25;;
47431;SDS011;33183;52.290;6.144;2023-01-08T05:09:41;1.60;;;1.35;;
47431;SDS011;33183;52.290;6.144;2023-01-08T05:12:06;1.83;;;1.27;;
47431;SDS011;33183;52.290;6.144;2023-01-08T05:14:32;1.67;;;1.17;;
47431;SDS011;33183;52.290;6.144;2023-01-08T05:16:57;1.67;;;1.20;;
47431;SDS011;33183;52.290;6.144;2023-01-08T05:19:22;1.38;;;1.25;;
47431;SDS011;33183;52.290;6.144;2023-01-08T05:21:47;2.00;;;1.10;;
47431;SDS011;33183;52.290;6.144;2023-01-08T05:24:13;2.25;;;1.35;;
47431;SDS011;33183;52.290;6.144;2023-01-08T05:26:38;1.52;;;1.05;;
47431;SDS011;33183;52.290;6.144;2023-01-08T05:29:03;1.40;;;1.00;;
47431;SDS011;33183;52.290;6.144;2023-01-08T05:31:28;1.27;;;1.17;;
47431;SDS011;33183;52.290;6.144;2023-01-08T05:33:56;2.97;;;1.65;;
47431;SDS011;33183;52.290;6.144;2023-01-08T05:36:21;1.95;;;1.27;;
47431;SDS011;33183;52.290;6.144;2023-01-08T05:38:47;1.10;;;1.00;;
47431;SDS011;33183;52.290;6.144;2023-01-08T05:41:12;1.55;;;1.10;;
47431;SDS011;33183;52.290;6.144;2023-01-08T05:43:37;1.50;;;1.02;;
47431;SDS011;33183;52.290;6.144;2023-01-08T05:46:03;1.10;;;1.00;;
47431;SDS011;33183;52.290;6.144;2023-01-08T05:48:29;1.17;;;0.93;;
47431;SDS011;33183;52.290;6.144;2023-01-08T05:50:54;1.60;;;1.30;;
47431;SDS011;33183;52.290;6.144;2023-01-08T05:53:20;2.47;;;1.33;;
47431;SDS011;33183;52.290;6.144;2023-01-08T05:55:45;1.35;;;1.25;;
47431;SDS011;33183;52.290;6.144;2023-01-08T05:58:10;3.03;;;1.27;;
47431;SDS011;33183;52.290;6.144;2023-01-08T06:00:36;1.23;;;1.10;;
47431;SDS011;33183;52.290;6.144;2023-01-08T06:03:02;2.17;;;1.42;;
47431;SDS011;33183;52.290;6.144;2023-01-08T06:05:29;1.85;;;1.33;;
47431;SDS011;33183;52.290;6.144;2023-01-08T06:07:55;2.05;;;1.05;;
47431;SDS011;33183;52.290;6.144;2023-01-08T06:10:20;1.33;;;1.10;;
47431;SDS011;33183;52.290;6.144;2023-01-08T06:12:45;2.08;;;1.27;;
47431;SDS011;33183;52.290;6.144;2023-01-08T06:15:11;1.33;;;1.00;;
47431;SDS011;33183;52.290;6.144;2023-01-08T06:17:36;1.20;;;1.10;;
47431;SDS011;33183;52.290;6.144;2023-01-08T06:20:02;2.90;;;1.30;;
47431;SDS011;33183;52.290;6.144;2023-01-08T06:22:27;1.90;;;1.05;;
47431;SDS011;33183;52.290;6.144;2023-01-08T06:24:53;1.58;;;1.10;;
47431;SDS011;33183;52.290;6.144;2023-01-08T06:27:18;1.60;;;1.10;;
47431;SDS011;33183;52.290;6.144;2023-01-08T06:29:43;1.20;;;1.10;;
47431;SDS011;33183;52.290;6.144;2023-01-08T06:32:08;2.33;;;1.50;;
47431;SDS011;33183;52.290;6.144;2023-01-08T06:34:34;1.80;;;1.30;;
47431;SDS011;33183;52.290;6.144;2023-01-08T06:36:59;2.13;;;1.10;;
47431;SDS011;33183;52.290;6.144;2023-01-08T06:39:24;3.10;;;1.08;;
47431;SDS011;33183;52.290;6.144;2023-01-08T06:41:49;2.42;;;1.40;;
47431;SDS011;33183;52.290;6.144;2023-01-08T06:44:15;1.48;;;1.20;;
47431;SDS011;33183;52.290;6.144;2023-01-08T06:46:40;2.90;;;1.30;;
47431;SDS011;33183;52.290;6.144;2023-01-08T06:49:06;2.15;;;1.05;;
47431;SDS011;33183;52.290;6.144;2023-01-08T06:51:31;2.13;;;1.30;;
47431;SDS011;33183;52.290;6.144;2023-01-08T06:53:57;1.90;;;1.20;;
47431;SDS011;33183;52.290;6.144;2023-01-08T06:56:22;1.55;;;1.17;;
47431;SDS011;33183;52.290;6.144;2023-01-08T06:58:47;2.53;;;1.20;;
47431;SDS011;33183;52.290;6.144;2023-01-08T07:01:13;1.38;;;1.05;;
47431;SDS011;33183;52.290;6.144;2023-01-08T07:03:39;2.53;;;1.73;;
47431;SDS011;33183;52.290;6.144;2023-01-08T07:06:05;2.22;;;1.50;;
47431;SDS011;33183;52.290;6.144;2023-01-08T07:08:30;2.10;;;1.42;;
47431;SDS011;33183;52.290;6.144;2023-01-08T07:10:55;1.20;;;1.00;;
47431;SDS011;33183;52.290;6.144;2023-01-08T07:13:21;1.90;;;1.33;;
47431;SDS011;33183;52.290;6.144;2023-01-08T07:15:47;2.28;;;1.20;;
47431;SDS011;33183;52.290;6.144;2023-01-08T07:18:13;1.30;;;1.20;;
47431;SDS011;33183;52.290;6.144;2023-01-08T07:20:38;2.47;;;1.20;;
47431;SDS011;33183;52.290;6.144;2023-01-08T07:23:04;1.55;;;1.13;;
47431;SDS011;33183;52.290;6.144;2023-01-08T07:25:31;1.88;;;1.60;;
47431;SDS011;33183;52.290;6.144;2023-01-08T07:27:57;1.48;;;1.13;;
47431;SDS011;33183;52.290;6.144;2023-01-08T07:30:22;2.10;;;1.10;;
47431;SDS011;33183;52.290;6.144;2023-01-08T07:32:47;3.53;;;1.38;;
47431;SDS011;33183;52.290;6.144;2023-01-08T07:35:13;3.00;;;1.30;;
47431;SDS011;33183;52.290;6.144;2023-01-08T07:37:38;3.85;;;1.30;;
47431;SDS011;33183;52.290;6.144;2023-01-08T07:40:04;2.28;;;1.42;;
47431;SDS011;33183;52.290;6.144;2023-01-08T07:42:30;1.90;;;1.23;;
47431;SDS011;33183;52.290;6.144;2023-01-08T07:44:56;2.22;;;1.50;;
47431;SDS011;33183;52.290;6.144;2023-01-08T07:47:21;2.22;;;1.27;;
47431;SDS011;33183;52.290;6.144;2023-01-08T07:49:46;1.50;;;1.10;;
47431;SDS011;33183;52.290;6.144;2023-01-08T07:52:11;3.05;;;1.55;;
47431;SDS011;33183;52.290;6.144;2023-01-08T07:54:37;2.15;;;1.23;;
47431;SDS011;33183;52.290;6.144;2023-01-08T07:57:02;2.35;;;1.45;;
47431;SDS011;33183;52.290;6.144;2023-01-08T07:59:27;3.30;;;1.73;;
47431;SDS011;33183;52.290;6.144;2023-01-08T08:01:52;3.33;;;1.48;;
47431;SDS011;33183;52.290;6.144;2023-01-08T08:04:18;1.80;;;1.33;;
47431;SDS011;33183;52.290;6.144;2023-01-08T08:06:43;2.50;;;1.40;;
47431;SDS011;33183;52.290;6.144;2023-01-08T08:09:08;2.92;;;1.30;;
47431;SDS011;33183;52.290;6.144;2023-01-08T08:11:33;2.53;;;1.40;;
47431;SDS011;33183;52.290;6.144;2023-01-08T08:13:59;2.58;;;1.40;;
47431;SDS011;33183;52.290;6.144;2023-01-08T08:16:24;4.05;;;1.70;;
47431;SDS011;33183;52.290;6.144;2023-01-08T08:18:49;2.70;;;1.70;;
47431;SDS011;33183;52.290;6.144;2023-01-08T08:21:15;2.88;;;1.63;;
47431;SDS011;33183;52.290;6.144;2023-01-08T08:23:40;2.88;;;1.33;;
47431;SDS011;33183;52.290;6.144;2023-01-08T08:26:05;1.83;;;1.40;;
47431;SDS011;33183;52.290;6.144;2023-01-08T08:28:31;6.07;;;2.47;;
47431;SDS011;33183;52.290;6.144;2023-01-08T08:30:57;4.05;;;2.00;;
47431;SDS011;33183;52.290;6.144;2023-01-08T08:33:22;2.03;;;1.50;;
47431;SDS011;33183;52.290;6.144;2023-01-08T08:35:48;2.50;;;1.40;;
47431;SDS011;33183;52.290;6.144;2023-01-08T08:38:14;2.28;;;1.20;;
47431;SDS011;33183;52.290;6.144;2023-01-08T08:40:40;2.72;;;1.40;;
47431;SDS011;33183;52.290;6.144;2023-01-08T08:43:06;4.20;;;2.00;;
47431;SDS011;33183;52.290;6.144;2023-01-08T08:45:33;2.78;;;1.38;;
47431;SDS011;33183;52.290;6.144;2023-01-08T08:47:58;3.63;;;1.45;;
47431;SDS011;33183;52.290;6.144;2023-01-08T08:50:24;2.80;;;1.17;;
47431;SDS011;33183;52.290;6.144;2023-01-08T08:52:49;2.35;;;1.38;;
47431;SDS011;33183;52.290;6.144;2023-01-08T08:55:14;1.65;;;1.05;;
47431;SDS011;33183;52.290;6.144;2023-01-08T08:57:42;2.17;;;1.30;;
47431;SDS011;33183;52.290;6.144;2023-01-08T09:00:08;1.95;;;1.23;;
47431;SDS011;33183;52.290;6.144;2023-01-08T09:02:34;2.95;;;1.30;;
47431;SDS011;33183;52.290;6.144;2023-01-08T09:04:59;3.35;;;1.73;;
47431;SDS011;33183;52.290;6.144;2023-01-08T09:07:25;2.35;;;1.30;;
47431;SDS011;33183;52.290;6.144;2023-01-08T09:09:50;2.30;;;1.52;;
47431;SDS011;33183;52.290;6.144;2023-01-08T09:12:15;2.53;;;1.65;;
47431;SDS011;33183;52.290;6.144;2023-01-08T09:14:40;4.07;;;1.27;;
47431;SDS011;33183;52.290;6.144;2023-01-08T09:17:06;3.63;;;1.58;;
47431;SDS011;33183;52.290;6.144;2023-01-08T09:19:31;2.47;;;1.30;;
47431;SDS011;33183;52.290;6.144;2023-01-08T09:21:56;3.03;;;1.40;;
47431;SDS011;33183;52.290;6.144;2023-01-08T09:24:22;3.08;;;1.20;;
47431;SDS011;33183;52.290;6.144;2023-01-08T09:26:47;3.05;;;1.27;;
47431;SDS011;33183;52.290;6.144;2023-01-08T09:29:12;2.13;;;1.27;;
47431;SDS011;33183;52.290;6.144;2023-01-08T09:31:37;2.05;;;1.23;;
47431;SDS011;33183;52.290;6.144;2023-01-08T09:34:02;2.85;;;1.40;;
47431;SDS011;33183;52.290;6.144;2023-01-08T09:36:28;3.95;;;1.45;;
47431;SDS011;33183;52.290;6.144;2023-01-08T09:38:53;2.63;;;1.30;;
47431;SDS011;33183;52.290;6.144;2023-01-08T09:41:20;2.70;;;1.30;;
47431;SDS011;33183;52.290;6.144;2023-01-08T09:43:47;2.80;;;1.40;;
47431;SDS011;33183;52.290;6.144;2023-01-08T09:46:15;3.20;;;1.30;;
47431;SDS011;33183;52.290;6.144;2023-01-08T09:48:42;3.58;;;1.30;;
47431;SDS011;33183;52.290;6.144;2023-01-08T09:51:10;2.28;;;1.13;;
47431;SDS011;33183;52.290;6.144;2023-01-08T09:53:36;2.20;;;1.35;;
47431;SDS011;33183;52.290;6.144;2023-01-08T09:56:02;4.22;;;1.55;;
47431;SDS011;33183;52.290;6.144;2023-01-08T09:58:34;2.20;;;1.10;;
47431;SDS011;33183;52.290;6.144;2023-01-08T10:01:02;2.53;;;1.35;;
47431;SDS011;33183;52.290;6.144;2023-01-08T10:03:29;4.93;;;1.40;;
47431;SDS011;33183;52.290;6.144;2023-01-08T10:06:06;3.45;;;1.35;;
47431;SDS011;33183;52.290;6.144;2023-01-08T10:08:33;2.45;;;1.00;;
47431;SDS011;33183;52.290;6.144;2023-01-08T10:10:58;2.20;;;1.08;;
47431;SDS011;33183;52.290;6.144;2023-01-08T10:13:23;3.35;;;1.52;;
47431;SDS011;33183;52.290;6.144;2023-01-08T10:15:50;2.10;;;1.27;;
47431;SDS011;33183;52.290;6.144;2023-01-08T10:18:16;1.25;;;0.95;;
47431;SDS011;33183;52.290;6.144;2023-01-08T10:20:43;4.55;;;1.10;;
47431;SDS011;33183;52.290;6.144;2023-01-08T10:23:10;2.05;;;1.00;;
47431;SDS011;33183;52.290;6.144;2023-01-08T10:30:47;3.80;;;2.00;;
47431;SDS011;33183;52.290;6.144;2023-01-08T10:36:12;13.27;;;2.35;;
47431;SDS011;33183;52.290;6.144;2023-01-08T10:38:54;7.13;;;1.88;;
47431;SDS011;33183;52.290;6.144;2023-01-08T10:41:21;7.72;;;2.22;;
47431;SDS011;33183;52.290;6.144;2023-01-08T10:46:21;8.18;;;1.77;;
47431;SDS011;33183;52.290;6.144;2023-01-08T10:48:49;8.07;;;1.77;;
47431;SDS011;33183;52.290;6.144;2023-01-08T10:51:20;7.45;;;1.48;;
47431;SDS011;33183;52.290;6.144;2023-01-08T10:53:47;6.00;;;2.10;;
47431;SDS011;33183;52.290;6.144;2023-01-08T10:56:39;7.75;;;2.40;;
47431;SDS011;33183;52.290;6.144;2023-01-08T10:59:05;6.80;;;1.65;;
47431;SDS011;33183;52.290;6.144;2023-01-08T11:01:30;5.63;;;1.75;;
47431;SDS011;33183;52.290;6.144;2023-01-08T11:03:59;6.05;;;2.28;;
47431;SDS011;33183;52.290;6.144;2023-01-08T11:06:29;3.40;;;1.40;;
47431;SDS011;33183;52.290;6.144;2023-01-08T11:08:56;7.15;;;1.98;;
47431;SDS011;33183;52.290;6.144;2023-01-08T11:11:23;6.50;;;1.65;;
47431;SDS011;33183;52.290;6.144;2023-01-08T11:13:59;4.20;;;1.30;;
47431;SDS011;33183;52.290;6.144;2023-01-08T11:16:35;7.43;;;1.55;;
47431;SDS011;33183;52.290;6.144;2023-01-08T11:19:02;3.97;;;1.95;;
47431;SDS011;33183;52.290;6.144;2023-01-08T11:21:29;4.20;;;1.40;;
47431;SDS011;33183;52.290;6.144;2023-01-08T11:27:00;4.13;;;1.17;;
47431;SDS011;33183;52.290;6.144;2023-01-08T11:32:36;4.53;;;1.50;;
47431;SDS011;33183;52.290;6.144;2023-01-08T11:54:18;3.85;;;1.33;;
47431;SDS011;33183;52.290;6.144;2023-01-08T12:02:29;2.67;;;1.30;;
47431;SDS011;33183;52.290;6.144;2023-01-08T12:09:59;2.47;;;1.33;;
47431;SDS011;33183;52.290;6.144;2023-01-08T12:15:10;4.80;;;1.30;;
47431;SDS011;33183;52.290;6.144;2023-01-08T12:17:57;2.17;;;1.08;;
47431;SDS011;33183;52.290;6.144;2023-01-08T12:21:04;3.53;;;1.45;;
47431;SDS011;33183;52.290;6.144;2023-01-08T12:26:18;3.53;;;1.20;;
47431;SDS011;33183;52.290;6.144;2023-01-08T12:31:47;3.08;;;1.20;;
47431;SDS011;33183;52.290;6.144;2023-01-08T12:37:32;2.38;;;1.10;;
47431;SDS011;33183;52.290;6.144;2023-01-08T12:40:16;2.47;;;1.20;;
47431;SDS011;33183;52.290;6.144;2023-01-08T12:42:44;3.33;;;1.27;;
47431;SDS011;33183;52.290;6.144;2023-01-08T12:45:15;2.83;;;1.08;;
47431;SDS011;33183;52.290;6.144;2023-01-08T12:47:52;3.30;;;1.10;;
47431;SDS011;33183;52.290;6.144;2023-01-08T12:50:20;2.97;;;1.20;;
47431;SDS011;33183;52.290;6.144;2023-01-08T12:52:51;2.75;;;1.10;;
47431;SDS011;33183;52.290;6.144;2023-01-08T13:01:22;1.67;;;1.00;;
47431;SDS011;33183;52.290;6.144;2023-01-08T13:03:52;2.05;;;1.17;;
47431;SDS011;33183;52.290;6.144;2023-01-08T13:06:18;3.05;;;1.30;;
47431;SDS011;33183;52.290;6.144;2023-01-08T13:08:48;3.70;;;1.00;;
47431;SDS011;33183;52.290;6.144;2023-01-08T13:14:01;2.72;;;1.40;;
47431;SDS011;33183;52.290;6.144;2023-01-08T13:16:29;2.22;;;0.85;;
47431;SDS011;33183;52.290;6.144;2023-01-08T13:18:58;2.13;;;1.05;;
47431;SDS011;33183;52.290;6.144;2023-01-08T13:21:32;2.65;;;1.02;;
47431;SDS011;33183;52.290;6.144;2023-01-08T13:24:00;1.42;;;0.88;;
47431;SDS011;33183;52.290;6.144;2023-01-08T13:26:33;1.73;;;1.00;;
47431;SDS011;33183;52.290;6.144;2023-01-08T13:31:48;1.60;;;1.15;;
47431;SDS011;33183;52.290;6.144;2023-01-08T13:34:47;2.20;;;1.30;;
47431;SDS011;33183;52.290;6.144;2023-01-08T13:37:06;2.53;;;0.90;;
47431;SDS011;33183;52.290;6.144;2023-01-08T13:39:36;1.55;;;0.90;;
47431;SDS011;33183;52.290;6.144;2023-01-08T13:44:40;1.55;;;0.70;;
47431;SDS011;33183;52.290;6.144;2023-01-08T13:47:30;1.48;;;0.80;;
47431;SDS011;33183;52.290;6.144;2023-01-08T13:49:57;3.03;;;1.58;;
47431;SDS011;33183;52.290;6.144;2023-01-08T13:53:10;2.30;;;1.05;;
47431;SDS011;33183;52.290;6.144;2023-01-08T13:55:18;1.45;;;1.13;;
47431;SDS011;33183;52.290;6.144;2023-01-08T13:57:47;1.92;;;1.13;;
47431;SDS011;33183;52.290;6.144;2023-01-08T14:00:23;1.55;;;0.93;;
47431;SDS011;33183;52.290;6.144;2023-01-08T14:02:52;1.90;;;1.05;;
47431;SDS011;33183;52.290;6.144;2023-01-08T14:05:21;1.38;;;0.75;;
47431;SDS011;33183;52.290;6.144;2023-01-08T14:07:46;1.83;;;1.00;;
47431;SDS011;33183;52.290;6.144;2023-01-08T14:10:12;1.27;;;0.85;;
47431;SDS011;33183;52.290;6.144;2023-01-08T14:12:38;3.22;;;1.10;;
47431;SDS011;33183;52.290;6.144;2023-01-08T14:15:03;1.50;;;1.00;;
47431;SDS011;33183;52.290;6.144;2023-01-08T14:17:41;3.22;;;0.90;;
47431;SDS011;33183;52.290;6.144;2023-01-08T14:20:08;1.30;;;0.88;;
47431;SDS011;33183;52.290;6.144;2023-01-08T14:22:34;2.15;;;1.02;;
47431;SDS011;33183;52.290;6.144;2023-01-08T14:25:01;2.28;;;1.30;;
47431;SDS011;33183;52.290;6.144;2023-01-08T14:27:29;1.73;;;0.73;;
47431;SDS011;33183;52.290;6.144;2023-01-08T14:29:55;1.73;;;0.90;;
47431;SDS011;33183;52.290;6.144;2023-01-08T14:32:22;1.77;;;0.90;;
47431;SDS011;33183;52.290;6.144;2023-01-08T14:34:49;1.25;;;1.02;;
47431;SDS011;33183;52.290;6.144;2023-01-08T14:37:16;1.10;;;0.80;;
47431;SDS011;33183;52.290;6.144;2023-01-08T14:39:42;0.80;;;0.80;;
47431;SDS011;33183;52.290;6.144;2023-01-08T14:42:12;0.98;;;0.60;;
47431;SDS011;33183;52.290;6.144;2023-01-08T14:45:18;3.25;;;1.10;;
47431;SDS011;33183;52.290;6.144;2023-01-08T14:47:45;1.70;;;0.90;;
47431;SDS011;33183;52.290;6.144;2023-01-08T14:50:18;0.75;;;0.60;;
47431;SDS011;33183;52.290;6.144;2023-01-08T14:52:48;1.48;;;1.00;;
47431;SDS011;33183;52.290;6.144;2023-01-08T14:55:15;1.35;;;0.68;;
47431;SDS011;33183;52.290;6.144;2023-01-08T14:57:44;1.15;;;0.77;;
47431;SDS011;33183;52.290;6.144;2023-01-08T15:00:15;1.65;;;0.80;;
47431;SDS011;33183;52.290;6.144;2023-01-08T15:02:45;2.40;;;1.00;;
47431;SDS011;33183;52.290;6.144;2023-01-08T15:05:12;1.10;;;0.63;;
47431;SDS011;33183;52.290;6.144;2023-01-08T15:07:41;1.45;;;0.90;;
47431;SDS011;33183;52.290;6.144;2023-01-08T15:10:22;1.48;;;0.80;;
47431;SDS011;33183;52.290;6.144;2023-01-08T15:13:01;1.88;;;0.88;;
47431;SDS011;33183;52.290;6.144;2023-01-08T15:15:30;1.90;;;0.90;;
47431;SDS011;33183;52.290;6.144;2023-01-08T15:17:56;1.20;;;0.90;;
47431;SDS011;33183;52.290;6.144;2023-01-08T15:20:21;1.60;;;0.80;;
47431;SDS011;33183;52.290;6.144;2023-01-08T15:25:18;1.92;;;1.10;;
47431;SDS011;33183;52.290;6.144;2023-01-08T15:27:53;1.35;;;1.00;;
47431;SDS011;33183;52.290;6.144;2023-01-08T15:30:33;2.30;;;0.80;;
47431;SDS011;33183;52.290;6.144;2023-01-08T15:33:07;1.15;;;1.00;;
47431;SDS011;33183;52.290;6.144;2023-01-08T15:35:39;1.95;;;0.90;;
47431;SDS011;33183;52.290;6.144;2023-01-08T15:38:05;1.90;;;1.00;;
47431;SDS011;33183;52.290;6.144;2023-01-08T15:40:30;1.65;;;0.88;;
47431;SDS011;33183;52.290;6.144;2023-01-08T15:42:56;1.65;;;0.90;;
47431;SDS011;33183;52.290;6.144;2023-01-08T15:45:37;1.80;;;1.08;;
47431;SDS011;33183;52.290;6.144;2023-01-08T15:48:04;1.63;;;1.00;;
47431;SDS011;33183;52.290;6.144;2023-01-08T15:50:31;1.73;;;0.80;;
47431;SDS011;33183;52.290;6.144;2023-01-08T15:53:00;2.47;;;1.00;;
47431;SDS011;33183;52.290;6.144;2023-01-08T15:55:26;2.08;;;0.80;;
47431;SDS011;33183;52.290;6.144;2023-01-08T15:57:51;2.22;;;1.00;;
47431;SDS011;33183;52.290;6.144;2023-01-08T16:00:18;1.77;;;0.82;;
47431;SDS011;33183;52.290;6.144;2023-01-08T16:02:47;1.98;;;0.90;;
47431;SDS011;33183;52.290;6.144;2023-01-08T16:05:14;1.92;;;1.00;;
47431;SDS011;33183;52.290;6.144;2023-01-08T16:07:41;1.15;;;0.88;;
47431;SDS011;33183;52.290;6.144;2023-01-08T16:10:07;3.92;;;1.42;;
47431;SDS011;33183;52.290;6.144;2023-01-08T16:12:34;3.08;;;1.25;;
47431;SDS011;33183;52.290;6.144;2023-01-08T16:14:59;1.95;;;1.00;;
47431;SDS011;33183;52.290;6.144;2023-01-08T16:17:24;3.33;;;1.48;;
47431;SDS011;33183;52.290;6.144;2023-01-08T16:19:50;2.75;;;1.00;;
47431;SDS011;33183;52.290;6.144;2023-01-08T16:22:15;4.15;;;1.02;;
47431;SDS011;33183;52.290;6.144;2023-01-08T16:24:40;2.17;;;1.15;;
47431;SDS011;33183;52.290;6.144;2023-01-08T16:27:05;2.28;;;1.10;;